Map

Track Data

SID SEASON NUMBER BASIN SUBBASIN NAME ISO_TIME NATURE LAT LON WMO_WIND WMO_PRES WMO_AGENCY TRACK_TYPE DIST2LAND LANDFALL IFLAG USA_AGENCY USA_ATCF_ID USA_LAT USA_LON USA_RECORD USA_STATUS USA_WIND USA_PRES USA_SSHS USA_R34_NE USA_R34_SE USA_R34_SW USA_R34_NW USA_R50_NE USA_R50_SE USA_R50_SW USA_R50_NW USA_R64_NE USA_R64_SE USA_R64_SW USA_R64_NW USA_POCI USA_ROCI USA_RMW USA_EYE TOKYO_LAT TOKYO_LON TOKYO_GRADE TOKYO_WIND TOKYO_PRES TOKYO_R50_DIR TOKYO_R50_LONG TOKYO_R50_SHORT TOKYO_R30_DIR TOKYO_R30_LONG TOKYO_R30_SHORT TOKYO_LAND CMA_LAT CMA_LON CMA_CAT CMA_WIND CMA_PRES HKO_LAT HKO_LON HKO_CAT HKO_WIND HKO_PRES NEWDELHI_LAT NEWDELHI_LON NEWDELHI_GRADE NEWDELHI_WIND NEWDELHI_PRES NEWDELHI_CI NEWDELHI_DP NEWDELHI_POCI REUNION_LAT REUNION_LON REUNION_TYPE REUNION_WIND REUNION_PRES REUNION_TNUM REUNION_CI REUNION_RMW REUNION_R34_NE REUNION_R34_SE REUNION_R34_SW REUNION_R34_NW REUNION_R50_NE REUNION_R50_SE REUNION_R50_SW REUNION_R50_NW REUNION_R64_NE REUNION_R64_SE REUNION_R64_SW REUNION_R64_NW BOM_LAT BOM_LON BOM_TYPE BOM_WIND BOM_PRES BOM_TNUM BOM_CI BOM_RMW BOM_R34_NE BOM_R34_SE BOM_R34_SW BOM_R34_NW BOM_R50_NE BOM_R50_SE BOM_R50_SW BOM_R50_NW BOM_R64_NE BOM_R64_SE BOM_R64_SW BOM_R64_NW BOM_ROCI BOM_POCI BOM_EYE BOM_POS_METHOD BOM_PRES_METHOD NADI_LAT NADI_LON NADI_CAT NADI_WIND NADI_PRES WELLINGTON_LAT WELLINGTON_LON WELLINGTON_WIND WELLINGTON_PRES DS824_LAT DS824_LON DS824_STAGE DS824_WIND DS824_PRES TD9636_LAT TD9636_LON TD9636_STAGE TD9636_WIND TD9636_PRES TD9635_LAT TD9635_LON TD9635_WIND TD9635_PRES TD9635_ROCI NEUMANN_LAT NEUMANN_LON NEUMANN_CLASS NEUMANN_WIND NEUMANN_PRES MLC_LAT MLC_LON MLC_CLASS MLC_WIND MLC_PRES USA_GUST BOM_GUST BOM_GUST_PER REUNION_GUST REUNION_GUST_PER USA_SEAHGT USA_SEARAD_NE USA_SEARAD_SE USA_SEARAD_SW USA_SEARAD_NW STORM_SPEED STORM_DIR
1948143N17287 1948 32 NA CS NOT_NAMED 1948-05-22 06:00:00 TS 17.1000 -73.2000 30 hurdat_atl main 119 67 O_____________ hurdat_atl AL011948 17.1000 -73.2000 TD 30 -1 11 4
1948143N17287 1948 32 NA CS NOT_NAMED 1948-05-22 09:00:00 TS 17.6500 -73.1501 main 55 0 P_____________ AL011948 17.6500 -73.1501 TD 30 -1 11 5
1948143N17287 1948 32 NA CS NOT_NAMED 1948-05-22 12:00:00 TS 18.2000 -73.1000 30 hurdat_atl main 0 0 O_____________ hurdat_atl AL011948 18.2000 -73.1000 TD 30 -1 11 5
1948143N17287 1948 32 NA CS NOT_NAMED 1948-05-22 15:00:00 TS 18.7500 -73.0500 main 30 20 P_____________ AL011948 18.7500 -73.0500 TD 30 -1 11 5
1948143N17287 1948 32 NA CS NOT_NAMED 1948-05-22 18:00:00 TS 19.3000 -73.0000 30 hurdat_atl main 20 0 O_____________ hurdat_atl AL011948 19.3000 -73.0000 TD 30 -1 11 5
1948143N17287 1948 32 NA NA NOT_NAMED 1948-05-22 21:00:00 TS 19.8575 -72.9574 main 0 0 P_____________ AL011948 19.8575 -72.9574 TD 30 -1 11 5
1948143N17287 1948 32 NA NA NOT_NAMED 1948-05-23 00:00:00 TS 20.4000 -72.9000 30 hurdat_atl main 55 33 O_____________ hurdat_atl AL011948 20.4000 -72.9000 TD 30 -1 11 7
1948143N17287 1948 32 NA NA NOT_NAMED 1948-05-23 03:00:00 TS 20.9075 -72.8223 main 33 20 P_____________ AL011948 20.9075 -72.8223 TD 30 -1 10 11
1948143N17287 1948 32 NA NA NOT_NAMED 1948-05-23 06:00:00 TS 21.4000 -72.7000 30 hurdat_atl main 38 38 O_____________ hurdat_atl AL011948 21.4000 -72.7000 TD 30 -1 10 15
1948143N17287 1948 32 NA NA NOT_NAMED 1948-05-23 09:00:00 TS 21.8999 -72.5373 main 93 93 P_____________ AL011948 21.8999 -72.5373 TD 30 -1 11 20
1948143N17287 1948 32 NA NA NOT_NAMED 1948-05-23 12:00:00 TS 22.4000 -72.3000 30 hurdat_atl main 152 152 O_____________ hurdat_atl AL011948 22.4000 -72.3000 TD 30 -1 11 27
1948143N17287 1948 32 NA NA NOT_NAMED 1948-05-23 15:00:00 TS 22.8999 -71.9947 main 216 216 P_____________ AL011948 22.8999 -71.9947 TD 30 -1 12 33
1948143N17287 1948 32 NA NA NOT_NAMED 1948-05-23 18:00:00 TS 23.4000 -71.6000 30 hurdat_atl main 284 284 O_____________ hurdat_atl AL011948 23.4000 -71.6000 TD 30 -1 13 39
1948143N17287 1948 32 NA NA NOT_NAMED 1948-05-23 21:00:00 TS 23.9000 -71.1224 main 359 359 P_____________ AL011948 23.9000 -71.1224 TD 30 -1 14 42
1948143N17287 1948 32 NA NA NOT_NAMED 1948-05-24 00:00:00 TS 24.4000 -70.6000 30 hurdat_atl main 434 434 O_____________ hurdat_atl AL011948 24.4000 -70.6000 TD 30 -1 14 44
1948143N17287 1948 32 NA NA NOT_NAMED 1948-05-24 03:00:00 TS 24.9076 -70.0700 main 508 508 P_____________ AL011948 24.9076 -70.0700 TD 30 -1 14 42
1948143N17287 1948 32 NA NA NOT_NAMED 1948-05-24 06:00:00 TS 25.4000 -69.6000 30 hurdat_atl main 583 583 O_____________ hurdat_atl AL011948 25.4000 -69.6000 TD 30 -1 12 38
1948143N17287 1948 32 NA NA NOT_NAMED 1948-05-24 09:00:00 TS 25.8573 -69.2397 main 652 652 P_____________ AL011948 25.8573 -69.2397 TD 32 -1 11 31
1948143N17287 1948 32 NA NA NOT_NAMED 1948-05-24 12:00:00 TS 26.3000 -69.0000 35 hurdat_atl main 700 700 O_____________ hurdat_atl AL011948 26.3000 -69.0000 TS 35 0 10 21
1948143N17287 1948 32 NA NA NOT_NAMED 1948-05-24 15:00:00 TS 26.7499 -68.8622 main 742 742 P_____________ AL011948 26.7499 -68.8622 TS 35 0 9 11
1948143N17287 1948 32 NA NA NOT_NAMED 1948-05-24 18:00:00 TS 27.2000 -68.8000 35 hurdat_atl main 794 794 O_____________ hurdat_atl AL011948 27.2000 -68.8000 TS 35 0 9 8
1948143N17287 1948 32 NA NA NOT_NAMED 1948-05-24 21:00:00 TS 27.6575 -68.7201 main 846 846 P_____________ AL011948 27.6575 -68.7201 TS 37 0 9 5
1948143N17287 1948 32 NA NA NOT_NAMED 1948-05-25 00:00:00 TS 28.1000 -68.7000 40 hurdat_atl main 884 884 O_____________ hurdat_atl AL011948 28.1000 -68.7000 TS 40 0 9 357
1948143N17287 1948 32 NA NA NOT_NAMED 1948-05-25 03:00:00 TS 28.5300 -68.7847 main 918 918 P_____________ AL011948 28.5300 -68.7847 TS 40 0 8 347
1948143N17287 1948 32 NA NA NOT_NAMED 1948-05-25 06:00:00 TS 28.9000 -68.9000 40 hurdat_atl main 953 935 O_____________ hurdat_atl AL011948 28.9000 -68.9000 TS 40 0 7 347
1948143N17287 1948 32 NA NA NOT_NAMED 1948-05-25 09:00:00 TS 29.1875 -68.9651 main 935 919 P_____________ AL011948 29.1875 -68.9651 TS 42 0 5 350
1948143N17287 1948 32 NA NA NOT_NAMED 1948-05-25 12:00:00 TS 29.4000 -69.0000 45 hurdat_atl main 919 904 O_____________ hurdat_atl AL011948 29.4000 -69.0000 TS 45 0 4 355
1948143N17287 1948 32 NA NA NOT_NAMED 1948-05-25 15:00:00 TS 29.5875 -69.0150 main 904 896 P_____________ AL011948 29.5875 -69.0150 TS 45 0 3 0
1948143N17287 1948 32 NA NA NOT_NAMED 1948-05-25 18:00:00 TS 29.7000 -69.0000 45 hurdat_atl main 896 896 O_____________ hurdat_atl AL011948 29.7000 -69.0000 TS 45 0 2 19
1948143N17287 1948 32 NA NA NOT_NAMED 1948-05-25 21:00:00 TS 29.7375 -68.9575 main 896 896 P_____________ AL011948 29.7375 -68.9575 TS 45 0 1 90
1948143N17287 1948 32 NA NA NOT_NAMED 1948-05-26 00:00:00 TS 29.7000 -68.9000 45 hurdat_atl main 904 904 O_____________ hurdat_atl AL011948 29.7000 -68.9000 TS 45 0 2 147
1948143N17287 1948 32 NA NA NOT_NAMED 1948-05-26 03:00:00 TS 29.6000 -68.8575 main 911 911 P_____________ AL011948 29.6000 -68.8575 TS 45 0 2 155
1948143N17287 1948 32 NA NA NOT_NAMED 1948-05-26 06:00:00 TS 29.5000 -68.8000 45 hurdat_atl main 926 926 O_____________ hurdat_atl AL011948 29.5000 -68.8000 TS 45 0 2 134
1948143N17287 1948 32 NA NA NOT_NAMED 1948-05-26 09:00:00 TS 29.4700 -68.7075 main 933 933 P_____________ AL011948 29.4700 -68.7075 TS 45 0 2 90
1948143N17287 1948 32 NA NA NOT_NAMED 1948-05-26 12:00:00 TS 29.5000 -68.6000 45 hurdat_atl main 940 940 O_____________ hurdat_atl AL011948 29.5000 -68.6000 TS 45 0 2 61
1948143N17287 1948 32 NA NA NOT_NAMED 1948-05-26 15:00:00 TS 29.5700 -68.5000 main 940 940 P_____________ AL011948 29.5700 -68.5000 TS 42 0 3 41
1948143N17287 1948 32 NA NA NOT_NAMED 1948-05-26 18:00:00 TS 29.7000 -68.4000 40 hurdat_atl main 940 933 O_____________ hurdat_atl AL011948 29.7000 -68.4000 TS 40 0 4 30
1948143N17287 1948 32 NA NA NOT_NAMED 1948-05-26 21:00:00 TS 29.8775 -68.2925 main 933 926 P_____________ AL011948 29.8775 -68.2925 TS 40 0 4 23
1948143N17287 1948 32 NA NA NOT_NAMED 1948-05-27 00:00:00 TS 30.1000 -68.2000 40 hurdat_atl main 927 914 O_____________ hurdat_atl AL011948 30.1000 -68.2000 TS 40 0 5 16
1948143N17287 1948 32 NA NA NOT_NAMED 1948-05-27 03:00:00 TS 30.3275 -68.1424 main 921 898 P_____________ AL011948 30.3275 -68.1424 TS 40 0 5 10
1948143N17287 1948 32 NA NA NOT_NAMED 1948-05-27 06:00:00 TS 30.6000 -68.1000 40 hurdat_atl main 898 883 O_____________ hurdat_atl AL011948 30.6000 -68.1000 TS 40 0 6 9
1948143N17287 1948 32 NA NA NOT_NAMED 1948-05-27 09:00:00 TS 30.9350 -68.0277 main 883 855 P_____________ AL011948 30.9350 -68.0277 TS 40 0 7 7
1948143N17287 1948 32 NA NA NOT_NAMED 1948-05-27 12:00:00 TS 31.3000 -68.0000 40 hurdat_atl main 855 827 O_____________ hurdat_atl AL011948 31.3000 -68.0000 TS 40 0 7 356
1948143N17287 1948 32 NA NA NOT_NAMED 1948-05-27 15:00:00 TS 31.6425 -68.0699 main 827 794 P_____________ AL011948 31.6425 -68.0699 TS 40 0 7 346
1948143N17287 1948 32 NA NA NOT_NAMED 1948-05-27 18:00:00 TS 32.0000 -68.2000 40 hurdat_atl main 794 762 O_____________ hurdat_atl AL011948 32.0000 -68.2000 TS 40 0 8 343
1948143N17287 1948 32 NA NA NOT_NAMED 1948-05-27 21:00:00 TS 32.3850 -68.3425 main 762 723 P_____________ AL011948 32.3850 -68.3425 TS 37 0 8 342
1948143N17287 1948 32 NA NA NOT_NAMED 1948-05-28 00:00:00 TS 32.8000 -68.5000 35 hurdat_atl main 723 694 O_____________ hurdat_atl AL011948 32.8000 -68.5000 TS 35 0 9 343
1948143N17287 1948 32 NA NA NOT_NAMED 1948-05-28 03:00:00 TS 33.2425 -68.6575 main 685 653 P_____________ AL011948 33.2425 -68.6575 TS 32 -1 9 345
1948143N17287 1948 32 NA NA NOT_NAMED 1948-05-28 06:00:00 TS 33.7000 -68.8000 30 hurdat_atl main 653 629 O_____________ hurdat_atl AL011948 33.7000 -68.8000 TD 30 -1 9 346
1948143N17287 1948 32 NA NA NOT_NAMED 1948-05-28 09:00:00 TS 34.1575 -68.9225 main 625 604 P_____________ AL011948 34.1575 -68.9225 TD 30 -1 9 350
1948143N17287 1948 32 NA NA NOT_NAMED 1948-05-28 12:00:00 TS 34.6000 -69.0000 30 hurdat_atl main 604 594 O_____________ hurdat_atl AL011948 34.6000 -69.0000 TD 30 -1 9 355
1948143N17287 1948 32 NA NA NOT_NAMED 1948-05-28 15:00:00 TS 35.0150 -69.0152 main 594 587 P_____________ AL011948 35.0150 -69.0152 TD 27 -1 8 1
1948143N17287 1948 32 NA NA NOT_NAMED 1948-05-28 18:00:00 TS 35.4000 -69.0000 25 hurdat_atl main 587 585 O_____________ hurdat_atl AL011948 35.4000 -69.0000 TD 25 -1 7 0
1948143N17287 1948 32 NA NA NOT_NAMED 1948-05-28 21:00:00 TS 35.7575 -68.9949 main 584 584 P_____________ AL011948 35.7575 -68.9949 TD 25 -1 7 0
1948143N17287 1948 32 NA NA NOT_NAMED 1948-05-29 00:00:00 TS 36.1000 -69.0000 25 hurdat_atl main 584 O_____________ hurdat_atl AL011948 36.1000 -69.0000 TD 25 -1 7 358

About IBTrACS Database

This database is a web-friendly format of International Best Track Archive for Climate Stewardship (IBTrACS), a global best track data archive curated by NOAA dating back to 1842.

Updated: 2021-10-21